< < Back
Terminal Aerodrome Forecast


Current Version              Previous Versions:   1  2  3  4  5  6  7  8  9  

Terminal Aerodrome Forecast

837
FTUS42 KTAE 300500
TAFDHN
TAF
KDHN 300520Z 3006/3106 33006KT P6SM FEW060 SCT250=

Latest METAR

496
SAUS70 KWBC 300700 RRH
MTRDHN
METAR KDHN 300653Z AUTO 34006KT 10SM CLR 20/18 A3004 RMK AO2 SLP167
T02000178 $


USA.gov is the U.S. government's official web portal to all federal, state and local government web resources and services.